Cedar Grove, Louisiana
Current Conditions -  °F | °C
As of 7:56 AM on Thursday 18 Dec 2014 (Local Time) from KSHV Reporting Station
Overcast Overcast  
Wind Chill: 40°   Ceiling: 700
Heat Index: 44°   Visibility: 10mi
Dew Point: 42°   Wind: 8mph
Humidity: 93%   Direction: 70°ENE
Pressure: 30.18"   Gusts: NA
Location:  32.3873°N, 93.7356°W
Report Text: KSHV 181356Z 07007KT 10SM BKN007 OVC020 07/06 A3018 RMK AO2 RAE28 SLP218 P0000 T00670056
Loading
Personal Weather Stations






























Interactive Weather Map New forecast layout! Learn more

10-Day Weather Forecast

Advertisements
Track Severe Weather on mobile